sensor_id;sensor_type;location;lat;lon;timestamp;P1;durP1;ratioP1;P2;durP2;ratioP2
10677;SDS011;5387;48.722;9.110;2022-08-19T00:01:19;10.35;;;8.10;;
10677;SDS011;5387;48.722;9.110;2022-08-19T00:03:46;10.73;;;8.05;;
10677;SDS011;5387;48.722;9.110;2022-08-19T00:06:13;13.27;;;8.30;;
10677;SDS011;5387;48.722;9.110;2022-08-19T00:08:40;11.27;;;8.02;;
10677;SDS011;5387;48.722;9.110;2022-08-19T00:11:08;13.88;;;8.32;;
10677;SDS011;5387;48.722;9.110;2022-08-19T00:13:36;12.00;;;7.60;;
10677;SDS011;5387;48.722;9.110;2022-08-19T00:16:04;9.85;;;7.28;;
10677;SDS011;5387;48.722;9.110;2022-08-19T00:18:31;12.23;;;7.45;;
10677;SDS011;5387;48.722;9.110;2022-08-19T00:20:59;13.63;;;8.60;;
10677;SDS011;5387;48.722;9.110;2022-08-19T00:23:26;12.43;;;8.52;;
10677;SDS011;5387;48.722;9.110;2022-08-19T00:25:53;11.77;;;8.15;;
10677;SDS011;5387;48.722;9.110;2022-08-19T00:28:20;10.40;;;8.05;;
10677;SDS011;5387;48.722;9.110;2022-08-19T00:30:48;11.18;;;8.02;;
10677;SDS011;5387;48.722;9.110;2022-08-19T00:33:16;9.88;;;7.70;;
10677;SDS011;5387;48.722;9.110;2022-08-19T00:35:43;12.20;;;7.40;;
10677;SDS011;5387;48.722;9.110;2022-08-19T00:38:10;12.70;;;8.18;;
10677;SDS011;5387;48.722;9.110;2022-08-19T00:40:37;12.60;;;8.60;;
10677;SDS011;5387;48.722;9.110;2022-08-19T00:43:07;9.85;;;7.40;;
10677;SDS011;5387;48.722;9.110;2022-08-19T00:45:36;10.02;;;7.88;;
10677;SDS011;5387;48.722;9.110;2022-08-19T00:48:04;13.80;;;9.23;;
10677;SDS011;5387;48.722;9.110;2022-08-19T00:50:31;10.65;;;7.70;;
10677;SDS011;5387;48.722;9.110;2022-08-19T00:52:59;11.57;;;7.90;;
10677;SDS011;5387;48.722;9.110;2022-08-19T00:55:29;11.55;;;8.40;;
10677;SDS011;5387;48.722;9.110;2022-08-19T00:58:00;11.68;;;8.52;;
10677;SDS011;5387;48.722;9.110;2022-08-19T01:00:30;11.68;;;8.02;;
10677;SDS011;5387;48.722;9.110;2022-08-19T01:03:01;9.85;;;8.35;;
10677;SDS011;5387;48.722;9.110;2022-08-19T01:05:31;11.13;;;8.13;;
10677;SDS011;5387;48.722;9.110;2022-08-19T01:07:59;10.13;;;8.32;;
10677;SDS011;5387;48.722;9.110;2022-08-19T01:10:29;10.88;;;7.95;;
10677;SDS011;5387;48.722;9.110;2022-08-19T01:12:59;11.32;;;8.35;;
10677;SDS011;5387;48.722;9.110;2022-08-19T01:15:30;14.38;;;8.98;;
10677;SDS011;5387;48.722;9.110;2022-08-19T01:17:59;11.45;;;8.07;;
10677;SDS011;5387;48.722;9.110;2022-08-19T01:20:29;11.70;;;8.43;;
10677;SDS011;5387;48.722;9.110;2022-08-19T01:22:58;12.52;;;8.25;;
10677;SDS011;5387;48.722;9.110;2022-08-19T01:25:26;14.73;;;9.32;;
10677;SDS011;5387;48.722;9.110;2022-08-19T01:27:56;14.25;;;9.20;;
10677;SDS011;5387;48.722;9.110;2022-08-19T01:30:24;12.27;;;8.65;;
10677;SDS011;5387;48.722;9.110;2022-08-19T01:32:52;11.93;;;8.48;;
10677;SDS011;5387;48.722;9.110;2022-08-19T01:35:21;11.85;;;8.00;;
10677;SDS011;5387;48.722;9.110;2022-08-19T01:37:51;13.27;;;8.60;;
10677;SDS011;5387;48.722;9.110;2022-08-19T01:40:22;15.35;;;9.07;;
10677;SDS011;5387;48.722;9.110;2022-08-19T01:42:51;13.10;;;8.60;;
10677;SDS011;5387;48.722;9.110;2022-08-19T01:45:20;11.57;;;7.95;;
10677;SDS011;5387;48.722;9.110;2022-08-19T01:47:48;15.40;;;9.38;;
10677;SDS011;5387;48.722;9.110;2022-08-19T01:50:15;15.32;;;9.07;;
10677;SDS011;5387;48.722;9.110;2022-08-19T01:52:43;13.95;;;8.52;;
10677;SDS011;5387;48.722;9.110;2022-08-19T01:55:11;15.27;;;9.55;;
10677;SDS011;5387;48.722;9.110;2022-08-19T01:57:41;13.50;;;9.85;;
10677;SDS011;5387;48.722;9.110;2022-08-19T02:00:11;10.75;;;8.40;;
10677;SDS011;5387;48.722;9.110;2022-08-19T02:02:40;17.65;;;10.13;;
10677;SDS011;5387;48.722;9.110;2022-08-19T02:05:07;13.10;;;9.25;;
10677;SDS011;5387;48.722;9.110;2022-08-19T02:07:35;14.30;;;8.82;;
10677;SDS011;5387;48.722;9.110;2022-08-19T02:10:03;15.63;;;9.38;;
10677;SDS011;5387;48.722;9.110;2022-08-19T02:12:31;14.23;;;9.80;;
10677;SDS011;5387;48.722;9.110;2022-08-19T02:14:59;14.55;;;9.77;;
10677;SDS011;5387;48.722;9.110;2022-08-19T02:17:27;19.45;;;10.07;;
10677;SDS011;5387;48.722;9.110;2022-08-19T02:19:54;17.80;;;9.60;;
10677;SDS011;5387;48.722;9.110;2022-08-19T02:22:22;14.18;;;9.80;;
10677;SDS011;5387;48.722;9.110;2022-08-19T02:24:50;12.48;;;9.23;;
10677;SDS011;5387;48.722;9.110;2022-08-19T02:27:17;18.08;;;9.57;;
10677;SDS011;5387;48.722;9.110;2022-08-19T02:29:45;19.00;;;9.95;;
10677;SDS011;5387;48.722;9.110;2022-08-19T02:32:14;13.73;;;9.60;;
10677;SDS011;5387;48.722;9.110;2022-08-19T02:34:41;14.98;;;10.05;;
10677;SDS011;5387;48.722;9.110;2022-08-19T02:37:08;16.35;;;10.15;;
10677;SDS011;5387;48.722;9.110;2022-08-19T02:39:55;18.55;;;9.60;;
10677;SDS011;5387;48.722;9.110;2022-08-19T02:42:21;17.52;;;10.32;;
10677;SDS011;5387;48.722;9.110;2022-08-19T02:44:48;18.48;;;11.15;;
10677;SDS011;5387;48.722;9.110;2022-08-19T02:47:16;16.52;;;10.48;;
10677;SDS011;5387;48.722;9.110;2022-08-19T02:49:44;13.98;;;10.02;;
10677;SDS011;5387;48.722;9.110;2022-08-19T02:52:11;17.33;;;9.68;;
10677;SDS011;5387;48.722;9.110;2022-08-19T02:54:39;16.75;;;9.60;;
10677;SDS011;5387;48.722;9.110;2022-08-19T02:57:05;16.80;;;10.30;;
10677;SDS011;5387;48.722;9.110;2022-08-19T02:59:33;15.90;;;10.23;;
10677;SDS011;5387;48.722;9.110;2022-08-19T03:02:00;15.90;;;11.05;;
10677;SDS011;5387;48.722;9.110;2022-08-19T03:04:28;17.55;;;11.45;;
10677;SDS011;5387;48.722;9.110;2022-08-19T03:06:55;14.95;;;10.38;;
10677;SDS011;5387;48.722;9.110;2022-08-19T03:09:22;15.00;;;10.35;;
10677;SDS011;5387;48.722;9.110;2022-08-19T03:11:49;15.57;;;9.85;;
10677;SDS011;5387;48.722;9.110;2022-08-19T03:14:16;20.42;;;11.02;;
10677;SDS011;5387;48.722;9.110;2022-08-19T03:16:44;23.92;;;11.80;;
10677;SDS011;5387;48.722;9.110;2022-08-19T03:19:15;17.27;;;11.55;;
10677;SDS011;5387;48.722;9.110;2022-08-19T03:21:45;18.38;;;11.60;;
10677;SDS011;5387;48.722;9.110;2022-08-19T03:24:13;18.38;;;11.48;;
10677;SDS011;5387;48.722;9.110;2022-08-19T03:26:41;17.40;;;10.52;;
10677;SDS011;5387;48.722;9.110;2022-08-19T03:29:10;14.80;;;10.05;;
10677;SDS011;5387;48.722;9.110;2022-08-19T03:31:37;17.58;;;11.65;;
10677;SDS011;5387;48.722;9.110;2022-08-19T03:34:05;16.90;;;11.32;;
10677;SDS011;5387;48.722;9.110;2022-08-19T03:36:33;16.13;;;10.77;;
10677;SDS011;5387;48.722;9.110;2022-08-19T03:39:01;15.43;;;10.85;;
10677;SDS011;5387;48.722;9.110;2022-08-19T03:41:29;16.00;;;11.20;;
10677;SDS011;5387;48.722;9.110;2022-08-19T03:43:57;17.95;;;11.63;;
10677;SDS011;5387;48.722;9.110;2022-08-19T03:46:25;18.70;;;11.40;;
10677;SDS011;5387;48.722;9.110;2022-08-19T03:48:54;15.27;;;11.48;;
10677;SDS011;5387;48.722;9.110;2022-08-19T03:51:23;18.10;;;11.10;;
10677;SDS011;5387;48.722;9.110;2022-08-19T03:53:52;18.98;;;11.77;;
10677;SDS011;5387;48.722;9.110;2022-08-19T03:56:21;17.15;;;11.98;;
10677;SDS011;5387;48.722;9.110;2022-08-19T03:58:50;19.63;;;13.40;;
10677;SDS011;5387;48.722;9.110;2022-08-19T04:01:19;16.85;;;11.90;;
10677;SDS011;5387;48.722;9.110;2022-08-19T04:03:48;21.33;;;11.60;;
10677;SDS011;5387;48.722;9.110;2022-08-19T04:06:16;18.20;;;12.13;;
10677;SDS011;5387;48.722;9.110;2022-08-19T04:08:46;18.17;;;11.57;;
10677;SDS011;5387;48.722;9.110;2022-08-19T04:11:16;21.80;;;12.75;;
10677;SDS011;5387;48.722;9.110;2022-08-19T04:13:47;20.55;;;12.40;;
10677;SDS011;5387;48.722;9.110;2022-08-19T04:16:14;23.15;;;12.50;;
10677;SDS011;5387;48.722;9.110;2022-08-19T04:18:41;19.65;;;12.05;;
10677;SDS011;5387;48.722;9.110;2022-08-19T04:21:08;18.02;;;12.38;;
10677;SDS011;5387;48.722;9.110;2022-08-19T04:23:41;17.65;;;12.50;;
10677;SDS011;5387;48.722;9.110;2022-08-19T04:26:11;18.55;;;12.52;;
10677;SDS011;5387;48.722;9.110;2022-08-19T04:28:39;23.08;;;12.25;;
10677;SDS011;5387;48.722;9.110;2022-08-19T04:31:12;20.73;;;12.85;;
10677;SDS011;5387;48.722;9.110;2022-08-19T04:33:40;19.67;;;13.35;;
10677;SDS011;5387;48.722;9.110;2022-08-19T04:36:07;21.35;;;13.63;;
10677;SDS011;5387;48.722;9.110;2022-08-19T04:38:41;20.90;;;13.55;;
10677;SDS011;5387;48.722;9.110;2022-08-19T04:41:07;21.77;;;13.15;;
10677;SDS011;5387;48.722;9.110;2022-08-19T04:43:52;21.80;;;13.77;;
10677;SDS011;5387;48.722;9.110;2022-08-19T04:46:20;19.10;;;13.25;;
10677;SDS011;5387;48.722;9.110;2022-08-19T04:48:47;17.85;;;13.68;;
10677;SDS011;5387;48.722;9.110;2022-08-19T04:51:14;20.55;;;13.95;;
10677;SDS011;5387;48.722;9.110;2022-08-19T04:53:42;22.80;;;13.90;;
10677;SDS011;5387;48.722;9.110;2022-08-19T04:56:09;23.25;;;13.57;;
10677;SDS011;5387;48.722;9.110;2022-08-19T04:58:38;22.38;;;14.50;;
10677;SDS011;5387;48.722;9.110;2022-08-19T05:01:07;21.63;;;13.75;;
10677;SDS011;5387;48.722;9.110;2022-08-19T05:03:36;22.70;;;13.48;;
10677;SDS011;5387;48.722;9.110;2022-08-19T05:06:04;25.60;;;13.98;;
10677;SDS011;5387;48.722;9.110;2022-08-19T05:08:33;21.40;;;13.80;;
10677;SDS011;5387;48.722;9.110;2022-08-19T05:11:06;22.58;;;13.75;;
10677;SDS011;5387;48.722;9.110;2022-08-19T05:13:34;20.05;;;13.50;;
10677;SDS011;5387;48.722;9.110;2022-08-19T05:16:01;19.58;;;13.55;;
10677;SDS011;5387;48.722;9.110;2022-08-19T05:18:28;20.38;;;14.15;;
10677;SDS011;5387;48.722;9.110;2022-08-19T05:21:16;19.77;;;12.77;;
10677;SDS011;5387;48.722;9.110;2022-08-19T05:24:02;20.70;;;13.68;;
10677;SDS011;5387;48.722;9.110;2022-08-19T05:26:32;19.58;;;13.65;;
10677;SDS011;5387;48.722;9.110;2022-08-19T05:28:59;22.65;;;11.95;;
10677;SDS011;5387;48.722;9.110;2022-08-19T05:31:26;24.25;;;13.45;;
10677;SDS011;5387;48.722;9.110;2022-08-19T05:33:53;21.98;;;12.27;;
10677;SDS011;5387;48.722;9.110;2022-08-19T05:36:24;21.15;;;14.27;;
10677;SDS011;5387;48.722;9.110;2022-08-19T05:38:51;19.95;;;13.38;;
10677;SDS011;5387;48.722;9.110;2022-08-19T05:41:19;21.15;;;13.02;;
10677;SDS011;5387;48.722;9.110;2022-08-19T05:43:48;20.85;;;12.88;;
10677;SDS011;5387;48.722;9.110;2022-08-19T05:46:16;19.90;;;12.75;;
10677;SDS011;5387;48.722;9.110;2022-08-19T05:48:45;17.30;;;11.70;;
10677;SDS011;5387;48.722;9.110;2022-08-19T05:51:13;20.48;;;12.73;;
10677;SDS011;5387;48.722;9.110;2022-08-19T05:53:42;23.05;;;13.10;;
10677;SDS011;5387;48.722;9.110;2022-08-19T05:56:12;22.88;;;12.57;;
10677;SDS011;5387;48.722;9.110;2022-08-19T05:58:41;19.83;;;11.90;;
10677;SDS011;5387;48.722;9.110;2022-08-19T06:01:10;19.60;;;12.80;;
10677;SDS011;5387;48.722;9.110;2022-08-19T06:03:38;18.55;;;12.75;;
10677;SDS011;5387;48.722;9.110;2022-08-19T06:06:06;25.08;;;13.02;;
10677;SDS011;5387;48.722;9.110;2022-08-19T06:08:34;21.27;;;12.35;;
10677;SDS011;5387;48.722;9.110;2022-08-19T06:11:16;19.92;;;12.45;;
10677;SDS011;5387;48.722;9.110;2022-08-19T06:13:46;19.60;;;12.38;;
10677;SDS011;5387;48.722;9.110;2022-08-19T06:16:16;20.42;;;13.50;;
10677;SDS011;5387;48.722;9.110;2022-08-19T06:18:45;20.52;;;12.73;;
10677;SDS011;5387;48.722;9.110;2022-08-19T06:21:13;19.17;;;12.63;;
10677;SDS011;5387;48.722;9.110;2022-08-19T06:23:40;18.75;;;11.95;;
10677;SDS011;5387;48.722;9.110;2022-08-19T06:26:10;23.52;;;12.73;;
10677;SDS011;5387;48.722;9.110;2022-08-19T06:28:39;21.60;;;12.85;;
10677;SDS011;5387;48.722;9.110;2022-08-19T06:31:11;19.67;;;12.13;;
10677;SDS011;5387;48.722;9.110;2022-08-19T06:33:39;17.48;;;12.32;;
10677;SDS011;5387;48.722;9.110;2022-08-19T06:36:07;18.73;;;13.38;;
10677;SDS011;5387;48.722;9.110;2022-08-19T06:38:41;21.52;;;13.55;;
10677;SDS011;5387;48.722;9.110;2022-08-19T06:41:08;20.23;;;12.60;;
10677;SDS011;5387;48.722;9.110;2022-08-19T06:43:36;20.15;;;13.77;;
10677;SDS011;5387;48.722;9.110;2022-08-19T06:46:04;21.30;;;12.88;;
10677;SDS011;5387;48.722;9.110;2022-08-19T06:48:36;23.42;;;13.68;;
10677;SDS011;5387;48.722;9.110;2022-08-19T06:51:03;17.80;;;12.82;;
10677;SDS011;5387;48.722;9.110;2022-08-19T06:53:30;23.48;;;12.63;;
10677;SDS011;5387;48.722;9.110;2022-08-19T06:55:57;29.13;;;14.85;;
10677;SDS011;5387;48.722;9.110;2022-08-19T06:58:27;19.35;;;12.35;;
10677;SDS011;5387;48.722;9.110;2022-08-19T07:00:56;17.65;;;12.77;;
10677;SDS011;5387;48.722;9.110;2022-08-19T07:03:27;21.13;;;12.60;;
10677;SDS011;5387;48.722;9.110;2022-08-19T07:05:56;22.77;;;13.27;;
10677;SDS011;5387;48.722;9.110;2022-08-19T07:08:24;21.70;;;13.45;;
10677;SDS011;5387;48.722;9.110;2022-08-19T07:10:52;19.80;;;13.38;;
10677;SDS011;5387;48.722;9.110;2022-08-19T07:13:19;19.55;;;13.45;;
10677;SDS011;5387;48.722;9.110;2022-08-19T07:15:47;21.33;;;12.50;;
10677;SDS011;5387;48.722;9.110;2022-08-19T07:18:15;22.35;;;13.35;;
10677;SDS011;5387;48.722;9.110;2022-08-19T07:20:43;20.80;;;12.90;;
10677;SDS011;5387;48.722;9.110;2022-08-19T07:23:10;22.98;;;13.07;;
10677;SDS011;5387;48.722;9.110;2022-08-19T07:25:38;17.70;;;12.48;;
10677;SDS011;5387;48.722;9.110;2022-08-19T07:28:05;23.02;;;13.77;;
10677;SDS011;5387;48.722;9.110;2022-08-19T07:30:35;21.98;;;14.20;;
10677;SDS011;5387;48.722;9.110;2022-08-19T07:33:05;19.73;;;13.60;;
10677;SDS011;5387;48.722;9.110;2022-08-19T07:35:32;23.60;;;13.77;;
10677;SDS011;5387;48.722;9.110;2022-08-19T07:38:01;21.60;;;13.05;;
10677;SDS011;5387;48.722;9.110;2022-08-19T07:40:29;20.15;;;12.88;;
10677;SDS011;5387;48.722;9.110;2022-08-19T07:42:56;21.08;;;12.82;;
10677;SDS011;5387;48.722;9.110;2022-08-19T07:45:24;16.83;;;11.85;;
10677;SDS011;5387;48.722;9.110;2022-08-19T07:47:53;22.17;;;13.07;;
10677;SDS011;5387;48.722;9.110;2022-08-19T07:50:20;23.55;;;13.32;;
10677;SDS011;5387;48.722;9.110;2022-08-19T07:52:48;20.95;;;12.32;;
10677;SDS011;5387;48.722;9.110;2022-08-19T07:55:17;20.70;;;13.23;;
10677;SDS011;5387;48.722;9.110;2022-08-19T07:57:52;18.27;;;12.70;;
10677;SDS011;5387;48.722;9.110;2022-08-19T08:00:19;16.15;;;11.80;;
10677;SDS011;5387;48.722;9.110;2022-08-19T08:02:46;22.02;;;12.65;;
10677;SDS011;5387;48.722;9.110;2022-08-19T08:05:13;16.50;;;11.43;;
10677;SDS011;5387;48.722;9.110;2022-08-19T08:07:57;17.13;;;11.85;;
10677;SDS011;5387;48.722;9.110;2022-08-19T08:10:43;18.85;;;11.15;;
10677;SDS011;5387;48.722;9.110;2022-08-19T08:13:10;18.80;;;11.65;;
10677;SDS011;5387;48.722;9.110;2022-08-19T08:15:37;25.83;;;11.35;;
10677;SDS011;5387;48.722;9.110;2022-08-19T08:18:04;17.67;;;10.70;;
10677;SDS011;5387;48.722;9.110;2022-08-19T08:20:32;17.30;;;12.00;;
10677;SDS011;5387;48.722;9.110;2022-08-19T08:22:58;17.58;;;12.15;;
10677;SDS011;5387;48.722;9.110;2022-08-19T08:25:44;16.30;;;11.05;;
10677;SDS011;5387;48.722;9.110;2022-08-19T08:28:12;20.17;;;11.73;;
10677;SDS011;5387;48.722;9.110;2022-08-19T08:30:39;19.40;;;10.32;;
10677;SDS011;5387;48.722;9.110;2022-08-19T08:33:07;14.18;;;10.10;;
10677;SDS011;5387;48.722;9.110;2022-08-19T08:35:34;16.13;;;11.18;;
10677;SDS011;5387;48.722;9.110;2022-08-19T08:38:01;14.80;;;10.95;;
10677;SDS011;5387;48.722;9.110;2022-08-19T08:40:30;25.00;;;11.43;;
10677;SDS011;5387;48.722;9.110;2022-08-19T08:43:21;16.42;;;11.07;;
10677;SDS011;5387;48.722;9.110;2022-08-19T08:45:52;16.67;;;10.18;;
10677;SDS011;5387;48.722;9.110;2022-08-19T08:48:29;21.02;;;11.80;;
10677;SDS011;5387;48.722;9.110;2022-08-19T08:51:00;16.15;;;10.93;;
10677;SDS011;5387;48.722;9.110;2022-08-19T08:53:30;21.30;;;11.73;;
10677;SDS011;5387;48.722;9.110;2022-08-19T08:55:58;18.67;;;11.00;;
10677;SDS011;5387;48.722;9.110;2022-08-19T08:58:31;15.52;;;12.00;;
10677;SDS011;5387;48.722;9.110;2022-08-19T09:01:09;18.73;;;11.60;;
10677;SDS011;5387;48.722;9.110;2022-08-19T09:03:37;14.10;;;10.85;;
10677;SDS011;5387;48.722;9.110;2022-08-19T09:06:06;15.43;;;10.60;;
10677;SDS011;5387;48.722;9.110;2022-08-19T09:08:40;8.48;;;7.38;;
10677;SDS011;5387;48.722;9.110;2022-08-19T09:11:14;14.77;;;10.65;;
10677;SDS011;5387;48.722;9.110;2022-08-19T09:13:49;15.32;;;10.15;;
10677;SDS011;5387;48.722;9.110;2022-08-19T09:16:28;11.70;;;9.52;;
10677;SDS011;5387;48.722;9.110;2022-08-19T09:18:58;15.25;;;10.73;;
10677;SDS011;5387;48.722;9.110;2022-08-19T09:21:28;20.13;;;11.55;;
10677;SDS011;5387;48.722;9.110;2022-08-19T09:23:55;16.88;;;10.48;;
10677;SDS011;5387;48.722;9.110;2022-08-19T09:26:22;16.10;;;11.15;;
10677;SDS011;5387;48.722;9.110;2022-08-19T09:28:51;16.90;;;11.38;;
10677;SDS011;5387;48.722;9.110;2022-08-19T09:31:20;16.33;;;10.13;;
10677;SDS011;5387;48.722;9.110;2022-08-19T09:33:48;16.15;;;10.93;;
10677;SDS011;5387;48.722;9.110;2022-08-19T09:36:17;13.65;;;10.27;;
10677;SDS011;5387;48.722;9.110;2022-08-19T09:38:47;18.60;;;10.73;;
10677;SDS011;5387;48.722;9.110;2022-08-19T09:41:15;19.38;;;10.77;;
10677;SDS011;5387;48.722;9.110;2022-08-19T09:43:45;19.63;;;11.27;;
10677;SDS011;5387;48.722;9.110;2022-08-19T09:46:15;22.80;;;10.65;;
10677;SDS011;5387;48.722;9.110;2022-08-19T09:48:43;14.82;;;10.00;;
10677;SDS011;5387;48.722;9.110;2022-08-19T09:51:13;13.40;;;9.30;;
10677;SDS011;5387;48.722;9.110;2022-08-19T09:53:41;15.80;;;10.55;;
10677;SDS011;5387;48.722;9.110;2022-08-19T09:56:10;12.85;;;8.98;;
10677;SDS011;5387;48.722;9.110;2022-08-19T09:58:37;15.30;;;10.98;;
10677;SDS011;5387;48.722;9.110;2022-08-19T10:01:05;13.13;;;9.70;;
10677;SDS011;5387;48.722;9.110;2022-08-19T10:03:35;15.18;;;9.82;;
10677;SDS011;5387;48.722;9.110;2022-08-19T10:06:04;14.88;;;10.13;;
10677;SDS011;5387;48.722;9.110;2022-08-19T10:08:33;19.08;;;9.90;;
10677;SDS011;5387;48.722;9.110;2022-08-19T10:11:02;12.55;;;9.35;;
10677;SDS011;5387;48.722;9.110;2022-08-19T10:13:31;18.17;;;8.88;;
10677;SDS011;5387;48.722;9.110;2022-08-19T10:16:02;14.93;;;8.82;;
10677;SDS011;5387;48.722;9.110;2022-08-19T10:18:31;11.07;;;8.95;;
10677;SDS011;5387;48.722;9.110;2022-08-19T10:21:04;11.65;;;8.13;;
10677;SDS011;5387;48.722;9.110;2022-08-19T10:23:34;11.20;;;8.10;;
10677;SDS011;5387;48.722;9.110;2022-08-19T10:26:01;11.77;;;8.68;;
10677;SDS011;5387;48.722;9.110;2022-08-19T10:28:30;12.55;;;8.05;;
10677;SDS011;5387;48.722;9.110;2022-08-19T10:30:57;14.73;;;8.02;;
10677;SDS011;5387;48.722;9.110;2022-08-19T10:33:24;15.15;;;8.55;;
10677;SDS011;5387;48.722;9.110;2022-08-19T10:35:58;11.38;;;8.98;;
10677;SDS011;5387;48.722;9.110;2022-08-19T10:38:27;9.63;;;7.43;;
10677;SDS011;5387;48.722;9.110;2022-08-19T10:40:54;13.90;;;8.35;;
10677;SDS011;5387;48.722;9.110;2022-08-19T10:43:21;10.43;;;8.15;;
10677;SDS011;5387;48.722;9.110;2022-08-19T10:45:51;10.98;;;7.78;;
10677;SDS011;5387;48.722;9.110;2022-08-19T10:48:20;13.55;;;7.60;;
10677;SDS011;5387;48.722;9.110;2022-08-19T10:50:47;13.77;;;7.63;;
10677;SDS011;5387;48.722;9.110;2022-08-19T10:53:33;9.63;;;7.88;;
10677;SDS011;5387;48.722;9.110;2022-08-19T10:56:00;11.95;;;8.02;;
10677;SDS011;5387;48.722;9.110;2022-08-19T10:58:44;17.17;;;6.80;;
10677;SDS011;5387;48.722;9.110;2022-08-19T11:01:11;10.25;;;7.90;;
10677;SDS011;5387;48.722;9.110;2022-08-19T11:03:38;8.95;;;7.18;;
10677;SDS011;5387;48.722;9.110;2022-08-19T11:06:08;8.25;;;7.00;;
10677;SDS011;5387;48.722;9.110;2022-08-19T11:08:36;10.43;;;6.93;;
10677;SDS011;5387;48.722;9.110;2022-08-19T11:11:05;12.40;;;7.43;;
10677;SDS011;5387;48.722;9.110;2022-08-19T11:13:33;14.13;;;6.78;;
10677;SDS011;5387;48.722;9.110;2022-08-19T11:16:03;10.75;;;6.72;;
10677;SDS011;5387;48.722;9.110;2022-08-19T11:18:32;7.20;;;6.47;;
10677;SDS011;5387;48.722;9.110;2022-08-19T11:21:04;9.63;;;6.72;;
10677;SDS011;5387;48.722;9.110;2022-08-19T11:23:32;15.07;;;6.82;;
10677;SDS011;5387;48.722;9.110;2022-08-19T11:26:00;8.23;;;6.82;;
10677;SDS011;5387;48.722;9.110;2022-08-19T11:28:27;9.43;;;6.72;;
10677;SDS011;5387;48.722;9.110;2022-08-19T11:30:54;11.27;;;6.72;;
10677;SDS011;5387;48.722;9.110;2022-08-19T11:33:21;11.10;;;6.82;;
10677;SDS011;5387;48.722;9.110;2022-08-19T11:35:51;9.82;;;5.95;;
10677;SDS011;5387;48.722;9.110;2022-08-19T11:38:18;11.60;;;6.95;;
10677;SDS011;5387;48.722;9.110;2022-08-19T11:40:45;8.38;;;6.68;;
10677;SDS011;5387;48.722;9.110;2022-08-19T11:43:20;10.38;;;6.75;;
10677;SDS011;5387;48.722;9.110;2022-08-19T11:45:47;7.53;;;5.93;;
10677;SDS011;5387;48.722;9.110;2022-08-19T11:48:14;10.00;;;6.38;;
10677;SDS011;5387;48.722;9.110;2022-08-19T11:50:41;7.97;;;6.93;;
10677;SDS011;5387;48.722;9.110;2022-08-19T11:53:08;8.35;;;6.30;;
10677;SDS011;5387;48.722;9.110;2022-08-19T11:55:36;7.10;;;6.35;;
10677;SDS011;5387;48.722;9.110;2022-08-19T11:58:04;9.00;;;5.70;;
10677;SDS011;5387;48.722;9.110;2022-08-19T12:00:34;7.85;;;6.13;;
10677;SDS011;5387;48.722;9.110;2022-08-19T12:03:01;9.50;;;6.78;;
10677;SDS011;5387;48.722;9.110;2022-08-19T12:05:28;7.85;;;6.40;;
10677;SDS011;5387;48.722;9.110;2022-08-19T12:07:55;7.75;;;6.50;;
10677;SDS011;5387;48.722;9.110;2022-08-19T12:10:22;10.65;;;5.95;;
10677;SDS011;5387;48.722;9.110;2022-08-19T12:12:49;9.20;;;5.22;;
10677;SDS011;5387;48.722;9.110;2022-08-19T12:15:16;6.75;;;5.68;;
10677;SDS011;5387;48.722;9.110;2022-08-19T12:17:45;6.22;;;5.60;;
10677;SDS011;5387;48.722;9.110;2022-08-19T12:20:12;9.63;;;6.45;;
10677;SDS011;5387;48.722;9.110;2022-08-19T12:22:40;6.15;;;5.20;;
10677;SDS011;5387;48.722;9.110;2022-08-19T12:25:08;7.85;;;5.50;;
10677;SDS011;5387;48.722;9.110;2022-08-19T12:27:36;10.77;;;5.22;;
10677;SDS011;5387;48.722;9.110;2022-08-19T12:30:04;7.80;;;5.18;;
10677;SDS011;5387;48.722;9.110;2022-08-19T12:32:33;6.88;;;5.22;;
10677;SDS011;5387;48.722;9.110;2022-08-19T12:35:01;11.73;;;5.88;;
10677;SDS011;5387;48.722;9.110;2022-08-19T12:37:28;6.22;;;5.07;;
10677;SDS011;5387;48.722;9.110;2022-08-19T12:39:56;5.18;;;4.55;;
10677;SDS011;5387;48.722;9.110;2022-08-19T12:42:23;6.57;;;5.47;;
10677;SDS011;5387;48.722;9.110;2022-08-19T12:44:50;5.47;;;4.68;;
10677;SDS011;5387;48.722;9.110;2022-08-19T12:47:18;6.00;;;4.80;;
10677;SDS011;5387;48.722;9.110;2022-08-19T12:49:45;6.43;;;4.78;;
10677;SDS011;5387;48.722;9.110;2022-08-19T12:52:14;8.50;;;5.50;;
10677;SDS011;5387;48.722;9.110;2022-08-19T12:54:41;6.80;;;4.68;;
10677;SDS011;5387;48.722;9.110;2022-08-19T12:57:09;5.90;;;4.45;;
10677;SDS011;5387;48.722;9.110;2022-08-19T12:59:37;4.60;;;4.20;;
10677;SDS011;5387;48.722;9.110;2022-08-19T13:02:05;6.05;;;4.97;;
10677;SDS011;5387;48.722;9.110;2022-08-19T13:04:33;8.73;;;5.22;;
10677;SDS011;5387;48.722;9.110;2022-08-19T13:07:03;8.15;;;6.72;;
10677;SDS011;5387;48.722;9.110;2022-08-19T13:09:31;13.50;;;8.48;;
10677;SDS011;5387;48.722;9.110;2022-08-19T13:11:59;13.23;;;8.30;;
10677;SDS011;5387;48.722;9.110;2022-08-19T13:14:27;10.48;;;8.25;;
10677;SDS011;5387;48.722;9.110;2022-08-19T13:16:56;12.45;;;8.43;;
10677;SDS011;5387;48.722;9.110;2022-08-19T13:19:23;13.65;;;8.80;;
10677;SDS011;5387;48.722;9.110;2022-08-19T13:21:50;10.25;;;7.57;;
10677;SDS011;5387;48.722;9.110;2022-08-19T13:24:17;9.43;;;7.32;;
10677;SDS011;5387;48.722;9.110;2022-08-19T13:26:45;13.52;;;8.15;;
10677;SDS011;5387;48.722;9.110;2022-08-19T13:29:13;13.60;;;8.57;;
10677;SDS011;5387;48.722;9.110;2022-08-19T13:31:57;8.95;;;7.53;;
10677;SDS011;5387;48.722;9.110;2022-08-19T13:34:42;10.93;;;8.70;;
10677;SDS011;5387;48.722;9.110;2022-08-19T13:37:11;11.25;;;8.32;;
10677;SDS011;5387;48.722;9.110;2022-08-19T13:39:38;11.52;;;8.50;;
10677;SDS011;5387;48.722;9.110;2022-08-19T13:42:07;9.15;;;7.65;;
10677;SDS011;5387;48.722;9.110;2022-08-19T13:44:34;12.15;;;8.73;;
10677;SDS011;5387;48.722;9.110;2022-08-19T13:47:02;10.55;;;8.40;;
10677;SDS011;5387;48.722;9.110;2022-08-19T13:49:31;10.10;;;7.72;;
10677;SDS011;5387;48.722;9.110;2022-08-19T13:51:58;8.55;;;7.63;;
10677;SDS011;5387;48.722;9.110;2022-08-19T13:54:25;11.52;;;9.18;;
10677;SDS011;5387;48.722;9.110;2022-08-19T13:56:53;13.45;;;8.27;;
10677;SDS011;5387;48.722;9.110;2022-08-19T13:59:21;14.52;;;10.07;;
10677;SDS011;5387;48.722;9.110;2022-08-19T14:01:48;15.98;;;10.77;;
10677;SDS011;5387;48.722;9.110;2022-08-19T14:04:15;13.68;;;10.68;;
10677;SDS011;5387;48.722;9.110;2022-08-19T14:06:41;13.38;;;10.32;;
10677;SDS011;5387;48.722;9.110;2022-08-19T14:09:08;13.50;;;10.05;;
10677;SDS011;5387;48.722;9.110;2022-08-19T14:11:35;13.80;;;10.38;;
10677;SDS011;5387;48.722;9.110;2022-08-19T14:14:03;19.52;;;10.55;;
10677;SDS011;5387;48.722;9.110;2022-08-19T14:16:31;15.77;;;11.38;;
10677;SDS011;5387;48.722;9.110;2022-08-19T14:18:58;14.43;;;10.85;;
10677;SDS011;5387;48.722;9.110;2022-08-19T14:21:25;17.10;;;11.15;;
10677;SDS011;5387;48.722;9.110;2022-08-19T14:23:52;17.42;;;11.00;;
10677;SDS011;5387;48.722;9.110;2022-08-19T14:26:20;19.17;;;11.48;;
10677;SDS011;5387;48.722;9.110;2022-08-19T14:28:47;13.50;;;11.20;;
10677;SDS011;5387;48.722;9.110;2022-08-19T14:31:16;13.43;;;9.98;;
10677;SDS011;5387;48.722;9.110;2022-08-19T14:33:46;15.05;;;11.07;;
10677;SDS011;5387;48.722;9.110;2022-08-19T14:36:13;15.63;;;11.50;;
10677;SDS011;5387;48.722;9.110;2022-08-19T14:38:41;13.73;;;10.35;;
10677;SDS011;5387;48.722;9.110;2022-08-19T14:41:13;15.35;;;10.70;;
10677;SDS011;5387;48.722;9.110;2022-08-19T14:43:42;14.15;;;9.80;;
10677;SDS011;5387;48.722;9.110;2022-08-19T14:46:11;13.73;;;9.95;;
10677;SDS011;5387;48.722;9.110;2022-08-19T14:48:38;15.07;;;10.63;;
10677;SDS011;5387;48.722;9.110;2022-08-19T14:51:07;12.82;;;9.77;;
10677;SDS011;5387;48.722;9.110;2022-08-19T14:53:34;9.88;;;8.35;;